Time;durP1;ratioP1;P1;durP2;ratioP2;P2;SDS_P1;SDS_P2;PMS_P1;PMS_P2;Temp;Humidity;BMP_temperature;BMP_pressure;BME280_temperature;BME280_humidity;BME280_pressure;Samples;Min_cycle;Max_cycle;Signal;HPM_P1;HPM_P2
2021/03/16 00:00:04;;;;;;;20.40;2.80;;;;;;;;;;4391671;32;20139;-79
2021/03/16 00:02:29;;;;;;;19.43;2.87;;;;;;;;;;4377633;32;20236;-80
2021/03/16 00:04:54;;;;;;;22.30;2.67;;;;;;;;;;4379039;32;20517;-79
2021/03/16 00:07:20;;;;;;;21.27;2.70;;;;;;;;;;4377931;32;20258;-79
2021/03/16 00:09:45;;;;;;;22.60;3.07;;;;;;;;;;4391741;32;20269;-81
2021/03/16 00:12:10;;;;;;;20.93;2.77;;;;;;;;;;4391947;32;20142;-80
2021/03/16 00:14:35;;;;;;;21.10;2.93;;;;;;;;;;4392168;32;20139;-80
2021/03/16 00:17:01;;;;;;;16.87;2.75;;;;;;;;;;4391385;32;20146;-79
2021/03/16 00:19:26;;;;;;;16.70;2.30;;;;;;;;;;4376936;32;20162;-79
2021/03/16 00:21:51;;;;;;;15.90;2.63;;;;;;;;;;4391985;32;20134;-77
2021/03/16 00:24:16;;;;;;;23.33;2.93;;;;;;;;;;4377204;32;20767;-78
2021/03/16 00:26:41;;;;;;;15.97;2.23;;;;;;;;;;4392216;32;20131;-78
2021/03/16 00:29:07;;;;;;;19.07;3.13;;;;;;;;;;4377048;32;20209;-79
2021/03/16 00:31:32;;;;;;;20.97;3.27;;;;;;;;;;4390912;32;20134;-77
2021/03/16 00:33:57;;;;;;;17.43;2.33;;;;;;;;;;4377073;32;20206;-79
2021/03/16 00:36:22;;;;;;;22.83;3.13;;;;;;;;;;4377934;32;20170;-79
2021/03/16 00:38:48;;;;;;;16.03;2.30;;;;;;;;;;4390676;32;20185;-79
2021/03/16 00:41:13;;;;;;;17.27;2.53;;;;;;;;;;4377056;32;20227;-80
2021/03/16 00:43:38;;;;;;;14.68;2.25;;;;;;;;;;4377587;32;20178;-79
2021/03/16 00:46:04;;;;;;;14.77;2.20;;;;;;;;;;4378361;32;20498;-78
2021/03/16 00:48:29;;;;;;;20.47;2.77;;;;;;;;;;4390361;32;20196;-78
2021/03/16 00:50:54;;;;;;;20.43;2.83;;;;;;;;;;4390727;32;20230;-79
2021/03/16 00:53:19;;;;;;;18.67;2.67;;;;;;;;;;4392099;32;20470;-79
2021/03/16 00:55:45;;;;;;;20.03;2.87;;;;;;;;;;4391529;32;20491;-80
2021/03/16 00:58:10;;;;;;;17.43;2.60;;;;;;;;;;4391501;32;20159;-80
2021/03/16 01:00:35;;;;;;;23.53;2.77;;;;;;;;;;4376707;32;20158;-79
2021/03/16 01:03:00;;;;;;;17.30;3.00;;;;;;;;;;4376929;32;20166;-80
2021/03/16 01:05:26;;;;;;;19.23;2.80;;;;;;;;;;4390893;32;20150;-77
2021/03/16 01:07:51;;;;;;;21.00;2.90;;;;;;;;;;4376700;32;20297;-80
2021/03/16 01:10:17;;;;;;;15.10;2.30;;;;;;;;;;4391188;32;20173;-79
2021/03/16 01:12:43;;;;;;;17.50;2.33;;;;;;;;;;4390695;32;20142;-78
2021/03/16 01:15:09;;;;;;;18.40;2.53;;;;;;;;;;4392364;32;20520;-78
2021/03/16 01:17:34;;;;;;;18.37;2.53;;;;;;;;;;4376544;32;20167;-77
2021/03/16 01:19:59;;;;;;;15.47;2.33;;;;;;;;;;4389994;32;20138;-79
2021/03/16 01:22:24;;;;;;;17.30;2.03;;;;;;;;;;4390954;32;20554;-79
2021/03/16 01:24:49;;;;;;;17.53;2.73;;;;;;;;;;4390615;32;20242;-79
2021/03/16 01:27:14;;;;;;;19.87;3.07;;;;;;;;;;4390581;32;20218;-79
2021/03/16 01:29:40;;;;;;;15.13;2.50;;;;;;;;;;4389244;32;20138;-77
2021/03/16 01:32:05;;;;;;;17.90;2.93;;;;;;;;;;4390402;32;20234;-79
2021/03/16 01:34:30;;;;;;;21.07;2.93;;;;;;;;;;4390855;32;20609;-79
2021/03/16 01:36:56;;;;;;;17.53;2.33;;;;;;;;;;4376863;32;20162;-79
2021/03/16 01:39:21;;;;;;;15.03;2.17;;;;;;;;;;4376267;32;20261;-79
2021/03/16 01:41:46;;;;;;;16.37;3.23;;;;;;;;;;4377152;32;20166;-79
2021/03/16 01:44:11;;;;;;;11.67;2.10;;;;;;;;;;4376040;32;20475;-79
2021/03/16 01:46:36;;;;;;;21.67;2.70;;;;;;;;;;4390101;32;20173;-78
2021/03/16 01:49:02;;;;;;;17.30;2.20;;;;;;;;;;4377445;32;20235;-80
2021/03/16 01:51:27;;;;;;;17.33;2.50;;;;;;;;;;4377037;32;20213;-80
2021/03/16 01:53:52;;;;;;;13.40;2.27;;;;;;;;;;4376388;32;20651;-79
2021/03/16 01:56:18;;;;;;;16.07;2.43;;;;;;;;;;4390919;32;20473;-78
2021/03/16 01:58:44;;;;;;;18.40;2.60;;;;;;;;;;4389828;32;20138;-80
2021/03/16 02:01:09;;;;;;;23.17;2.87;;;;;;;;;;4390168;32;20543;-80
2021/03/16 02:03:34;;;;;;;16.70;3.00;;;;;;;;;;4390071;32;20138;-79
2021/03/16 02:06:01;;;;;;;15.50;2.13;;;;;;;;;;4376103;32;20170;-78
2021/03/16 02:08:47;;;;;;;17.03;2.70;;;;;;;;;;4390476;32;20552;-78
2021/03/16 02:11:15;;;;;;;15.53;3.10;;;;;;;;;;4375982;32;20166;-79
2021/03/16 02:13:51;;;;;;;19.93;2.60;;;;;;;;;;4390494;32;20176;-78
2021/03/16 02:16:18;;;;;;;15.57;2.53;;;;;;;;;;4376430;32;20169;-79
2021/03/16 02:18:46;;;;;;;21.03;3.07;;;;;;;;;;4389979;32;20134;-79
2021/03/16 02:21:18;;;;;;;16.07;2.47;;;;;;;;;;4390225;32;20146;-81
2021/03/16 02:24:01;;;;;;;19.43;2.57;;;;;;;;;;4389810;32;20170;-78
2021/03/16 02:26:45;;;;;;;24.90;3.20;;;;;;;;;;4391433;32;20142;-78
2021/03/16 02:29:13;;;;;;;24.53;2.43;;;;;;;;;;4375662;32;20192;-78
2021/03/16 02:31:40;;;;;;;25.33;3.80;;;;;;;;;;4375762;32;20220;-78
2021/03/16 02:34:06;;;;;;;20.00;2.77;;;;;;;;;;4375707;32;20633;-78
2021/03/16 02:36:33;;;;;;;25.50;3.40;;;;;;;;;;4389661;32;20197;-78
2021/03/16 02:39:00;;;;;;;17.80;2.87;;;;;;;;;;4375664;32;20595;-78
2021/03/16 02:41:25;;;;;;;19.77;2.53;;;;;;;;;;4376937;32;20599;-79
2021/03/16 02:43:50;;;;;;;20.37;2.90;;;;;;;;;;4378620;32;20163;-80
2021/03/16 02:46:16;;;;;;;19.70;3.10;;;;;;;;;;4378717;32;20215;-78
2021/03/16 02:48:42;;;;;;;20.77;3.50;;;;;;;;;;4379191;32;20175;-79
2021/03/16 02:51:09;;;;;;;17.20;2.93;;;;;;;;;;4378486;32;20224;-79
2021/03/16 02:53:34;;;;;;;23.97;3.30;;;;;;;;;;4392159;32;20177;-79
2021/03/16 02:55:59;;;;;;;17.50;2.70;;;;;;;;;;4392341;32;20134;-79
2021/03/16 02:58:25;;;;;;;17.67;3.00;;;;;;;;;;4392695;32;20134;-79
2021/03/16 03:00:51;;;;;;;17.93;2.73;;;;;;;;;;4392143;32;20154;-80
2021/03/16 03:03:16;;;;;;;22.40;2.97;;;;;;;;;;4378537;32;20229;-81
2021/03/16 03:05:42;;;;;;;18.27;3.47;;;;;;;;;;4378537;32;20166;-80
2021/03/16 03:08:09;;;;;;;19.23;2.50;;;;;;;;;;4379489;32;20193;-79
2021/03/16 03:10:34;;;;;;;26.07;2.83;;;;;;;;;;4378220;32;20340;-80
2021/03/16 03:12:59;;;;;;;16.77;3.07;;;;;;;;;;4378174;32;20212;-79
2021/03/16 03:15:25;;;;;;;19.17;3.27;;;;;;;;;;4392370;32;20177;-79
2021/03/16 03:17:50;;;;;;;26.20;2.50;;;;;;;;;;4378066;32;20209;-78
2021/03/16 03:20:15;;;;;;;17.63;2.60;;;;;;;;;;4377983;32;20225;-79
2021/03/16 03:22:44;;;;;;;24.90;2.97;;;;;;;;;;4392223;32;20165;-78
2021/03/16 03:25:24;;;;;;;24.93;2.90;;;;;;;;;;4392393;32;20165;-78
2021/03/16 03:27:59;;;;;;;21.83;2.63;;;;;;;;;;4378143;32;20185;-78
2021/03/16 03:30:24;;;;;;;19.97;3.10;;;;;;;;;;4392275;32;20149;-79
2021/03/16 03:32:50;;;;;;;18.03;2.73;;;;;;;;;;4391563;32;20142;-79
2021/03/16 03:35:16;;;;;;;16.63;2.60;;;;;;;;;;4391637;32;20273;-79
2021/03/16 03:37:43;;;;;;;26.03;3.43;;;;;;;;;;4392464;32;20192;-78
2021/03/16 03:40:10;;;;;;;19.23;2.50;;;;;;;;;;4377772;32;20166;-79
2021/03/16 03:42:36;;;;;;;19.43;2.77;;;;;;;;;;4392365;32;20155;-79
2021/03/16 03:45:02;;;;;;;17.67;3.10;;;;;;;;;;4391547;32;20142;-79
2021/03/16 03:47:28;;;;;;;22.53;2.70;;;;;;;;;;4391636;32;20228;-79
2021/03/16 03:49:54;;;;;;;26.77;3.00;;;;;;;;;;4378032;32;20483;-79
2021/03/16 03:52:19;;;;;;;21.53;2.63;;;;;;;;;;4390660;32;20159;-79
2021/03/16 03:54:45;;;;;;;18.40;2.77;;;;;;;;;;4391918;32;20527;-79
2021/03/16 03:57:10;;;;;;;18.93;2.80;;;;;;;;;;4378716;32;20185;-80
2021/03/16 03:59:39;;;;;;;19.97;3.00;;;;;;;;;;4377842;32;20171;-80
2021/03/16 04:02:04;;;;;;;29.23;2.70;;;;;;;;;;4378866;32;20629;-78
2021/03/16 04:04:29;;;;;;;14.47;2.47;;;;;;;;;;4391750;32;20157;-78
2021/03/16 04:06:56;;;;;;;22.53;2.77;;;;;;;;;;4391108;32;20168;-79
2021/03/16 04:09:21;;;;;;;18.93;2.60;;;;;;;;;;4391935;32;20168;-80
2021/03/16 04:11:46;;;;;;;28.83;3.30;;;;;;;;;;4392725;32;20138;-79
2021/03/16 04:14:11;;;;;;;22.07;2.77;;;;;;;;;;4392120;32;20139;-80
2021/03/16 04:16:37;;;;;;;23.00;3.10;;;;;;;;;;4377524;32;20221;-80
2021/03/16 04:19:03;;;;;;;21.20;2.70;;;;;;;;;;4391520;32;20139;-79
2021/03/16 04:21:28;;;;;;;21.13;2.70;;;;;;;;;;4391891;32;20209;-79
2021/03/16 04:23:54;;;;;;;24.33;2.80;;;;;;;;;;4391570;32;20470;-80
2021/03/16 04:26:20;;;;;;;24.70;2.93;;;;;;;;;;4378119;32;20166;-78
2021/03/16 04:28:45;;;;;;;22.00;2.80;;;;;;;;;;4377095;32;20391;-79
2021/03/16 04:31:10;;;;;;;21.93;3.20;;;;;;;;;;4392539;32;20225;-79
2021/03/16 04:33:35;;;;;;;22.87;2.40;;;;;;;;;;4377029;32;20170;-78
2021/03/16 04:36:00;;;;;;;25.60;2.97;;;;;;;;;;4377828;32;20166;-79
2021/03/16 04:38:25;;;;;;;22.67;3.20;;;;;;;;;;4390845;32;20163;-78
2021/03/16 04:40:50;;;;;;;27.87;3.00;;;;;;;;;;4391148;32;20170;-78
2021/03/16 04:43:16;;;;;;;17.30;2.70;;;;;;;;;;4390585;32;20131;-80
2021/03/16 04:45:41;;;;;;;20.80;2.73;;;;;;;;;;4376669;32;20165;-78
2021/03/16 04:48:06;;;;;;;25.17;3.37;;;;;;;;;;4392652;32;20198;-78
2021/03/16 04:50:31;;;;;;;21.73;2.83;;;;;;;;;;4378101;32;20159;-78
2021/03/16 04:52:57;;;;;;;22.53;2.80;;;;;;;;;;4390673;32;20196;-78
2021/03/16 04:55:22;;;;;;;17.87;2.77;;;;;;;;;;4390445;32;20143;-80
2021/03/16 04:57:47;;;;;;;16.90;2.70;;;;;;;;;;4376630;32;20252;-79
2021/03/16 05:00:12;;;;;;;33.43;3.43;;;;;;;;;;4390690;32;20528;-78
2021/03/16 05:02:38;;;;;;;16.73;3.17;;;;;;;;;;4390769;32;20277;-78
2021/03/16 05:05:04;;;;;;;22.13;3.27;;;;;;;;;;4376525;32;20162;-78
2021/03/16 05:07:29;;;;;;;24.07;3.13;;;;;;;;;;4390738;32;20154;-80
2021/03/16 05:09:54;;;;;;;24.67;3.00;;;;;;;;;;4390440;32;20189;-79
2021/03/16 05:12:19;;;;;;;22.17;2.77;;;;;;;;;;4390615;32;20161;-80
2021/03/16 05:14:45;;;;;;;26.20;3.30;;;;;;;;;;4376340;32;20219;-78
2021/03/16 05:17:11;;;;;;;28.10;2.83;;;;;;;;;;4376436;32;20625;-78
2021/03/16 05:19:36;;;;;;;20.50;2.63;;;;;;;;;;4390462;32;20135;-79
2021/03/16 05:22:01;;;;;;;14.60;2.63;;;;;;;;;;4376366;32;20656;-79
2021/03/16 05:24:26;;;;;;;24.23;3.30;;;;;;;;;;4377217;32;20158;-78
2021/03/16 05:26:52;;;;;;;17.33;3.00;;;;;;;;;;4377923;32;20196;-77
2021/03/16 05:29:17;;;;;;;21.43;2.50;;;;;;;;;;4376088;32;20614;-79
2021/03/16 05:31:42;;;;;;;19.17;2.73;;;;;;;;;;4391452;32;20215;-78
2021/03/16 05:34:07;;;;;;;20.87;2.57;;;;;;;;;;4390043;32;20323;-76
2021/03/16 05:36:32;;;;;;;18.87;2.60;;;;;;;;;;4390386;32;20230;-79
2021/03/16 05:38:58;;;;;;;16.93;2.80;;;;;;;;;;4376090;32;20216;-79
2021/03/16 05:41:23;;;;;;;22.13;3.07;;;;;;;;;;4391368;32;20142;-79
2021/03/16 05:43:48;;;;;;;24.23;2.60;;;;;;;;;;4376354;32;20216;-78
2021/03/16 05:46:14;;;;;;;27.67;3.97;;;;;;;;;;4376218;32;20227;-78
2021/03/16 05:48:40;;;;;;;17.23;3.40;;;;;;;;;;4391506;32;20138;-79
2021/03/16 05:51:05;;;;;;;30.63;3.60;;;;;;;;;;4376792;32;20305;-78
2021/03/16 05:53:31;;;;;;;22.60;3.30;;;;;;;;;;4390165;32;20520;-79
2021/03/16 05:55:57;;;;;;;29.13;3.30;;;;;;;;;;4376574;32;20167;-77
2021/03/16 05:58:23;;;;;;;24.27;3.03;;;;;;;;;;4376508;32;20567;-78
2021/03/16 06:00:48;;;;;;;21.50;4.53;;;;;;;;;;4389344;32;20288;-77
2021/03/16 06:03:13;;;;;;;23.13;2.77;;;;;;;;;;4390036;32;20146;-81
2021/03/16 06:05:39;;;;;;;25.60;2.90;;;;;;;;;;4375814;32;20163;-78
2021/03/16 06:08:04;;;;;;;25.30;3.70;;;;;;;;;;4389571;32;20138;-80
2021/03/16 06:10:29;;;;;;;22.00;2.60;;;;;;;;;;4376254;32;20162;-79
2021/03/16 06:12:55;;;;;;;24.40;3.77;;;;;;;;;;4389409;32;20135;-79
2021/03/16 06:15:21;;;;;;;21.97;3.27;;;;;;;;;;4376725;32;20162;-79
2021/03/16 06:17:52;;;;;;;28.17;3.10;;;;;;;;;;4381286;32;20312;-79
2021/03/16 06:20:36;;;;;;;23.13;2.80;;;;;;;;;;4395417;32;20199;-79
2021/03/16 06:23:06;;;;;;;17.70;2.87;;;;;;;;;;4395018;32;20146;-78
2021/03/16 06:25:51;;;;;;;18.23;3.23;;;;;;;;;;4380648;32;20162;-77
2021/03/16 06:28:16;;;;;;;15.30;3.20;;;;;;;;;;4394228;32;20241;-80
2021/03/16 06:30:41;;;;;;;26.90;3.60;;;;;;;;;;4380410;32;20467;-77
2021/03/16 06:33:17;;;;;;;15.83;2.33;;;;;;;;;;4380951;32;20217;-79
2021/03/16 06:35:53;;;;;;;18.70;2.90;;;;;;;;;;4381212;32;20177;-79
2021/03/16 06:38:18;;;;;;;12.97;2.37;;;;;;;;;;4381286;32;20265;-79
2021/03/16 06:40:44;;;;;;;24.43;3.80;;;;;;;;;;4380384;32;20165;-77
2021/03/16 06:43:11;;;;;;;23.77;2.97;;;;;;;;;;4394575;32;20134;-78
2021/03/16 06:45:39;;;;;;;26.63;3.10;;;;;;;;;;4380615;32;20189;-79
2021/03/16 06:48:14;;;;;;;20.93;2.83;;;;;;;;;;4380449;32;20556;-80
2021/03/16 06:50:39;;;;;;;24.37;2.87;;;;;;;;;;4380453;32;20575;-78
2021/03/16 06:53:05;;;;;;;18.13;2.67;;;;;;;;;;4394078;32;20199;-80
2021/03/16 06:55:30;;;;;;;25.97;3.07;;;;;;;;;;4380810;32;20171;-78
2021/03/16 06:58:05;;;;;;;24.13;2.60;;;;;;;;;;4395148;32;20169;-80
2021/03/16 07:00:30;;;;;;;18.80;2.47;;;;;;;;;;4380035;32;20227;-78
2021/03/16 07:02:55;;;;;;;21.70;2.70;;;;;;;;;;4380645;32;20166;-77
2021/03/16 07:05:24;;;;;;;19.87;2.80;;;;;;;;;;4380345;32;20163;-77
2021/03/16 07:07:52;;;;;;;16.23;2.83;;;;;;;;;;4379466;32;20174;-77
2021/03/16 07:10:17;;;;;;;25.50;3.53;;;;;;;;;;4389323;32;20185;-78
2021/03/16 07:12:43;;;;;;;20.63;2.90;;;;;;;;;;4393726;32;20450;-77
2021/03/16 07:15:09;;;;;;;17.07;2.57;;;;;;;;;;4394791;32;20570;-78
2021/03/16 07:17:34;;;;;;;18.83;3.27;;;;;;;;;;4394404;32;20570;-75
2021/03/16 07:20:03;;;;;;;18.53;3.30;;;;;;;;;;4393853;32;20154;-78
2021/03/16 07:22:31;;;;;;;27.80;3.43;;;;;;;;;;4393448;32;20537;-74
2021/03/16 07:24:57;;;;;;;22.63;3.90;;;;;;;;;;4393863;32;20168;-75
2021/03/16 07:27:22;;;;;;;18.43;2.83;;;;;;;;;;4393333;32;20142;-79
2021/03/16 07:29:48;;;;;;;17.80;2.83;;;;;;;;;;4391986;32;20356;-79
2021/03/16 07:32:13;;;;;;;22.93;3.10;;;;;;;;;;4378862;32;20166;-76
2021/03/16 07:34:38;;;;;;;17.97;2.57;;;;;;;;;;4391801;32;20451;-80
2021/03/16 07:37:05;;;;;;;24.53;2.97;;;;;;;;;;4392007;32;20135;-80
2021/03/16 07:39:31;;;;;;;23.20;2.77;;;;;;;;;;4374817;32;20543;-78
2021/03/16 07:41:56;;;;;;;20.17;2.80;;;;;;;;;;4376042;32;20201;-79
2021/03/16 07:44:22;;;;;;;23.80;3.53;;;;;;;;;;4376479;32;20135;-77
2021/03/16 07:46:56;;;;;;;18.40;2.67;;;;;;;;;;4375218;32;20233;-79
2021/03/16 07:49:32;;;;;;;23.23;3.17;;;;;;;;;;4374685;32;20559;-77
2021/03/16 07:51:57;;;;;;;21.77;2.90;;;;;;;;;;4357234;32;20197;-78
2021/03/16 07:54:30;;;;;;;18.47;3.10;;;;;;;;;;4387956;32;20147;-78
2021/03/16 07:56:57;;;;;;;18.80;2.50;;;;;;;;;;4382882;32;20158;-78
2021/03/16 07:59:32;;;;;;;19.67;2.70;;;;;;;;;;4363348;32;20196;-79
2021/03/16 08:01:57;;;;;;;19.47;2.57;;;;;;;;;;4354133;33;20167;-78
2021/03/16 08:04:32;;;;;;;23.97;3.23;;;;;;;;;;4363079;32;20228;-80
2021/03/16 08:06:58;;;;;;;18.70;2.33;;;;;;;;;;4362157;32;20537;-80
2021/03/16 08:09:23;;;;;;;15.10;3.07;;;;;;;;;;4375378;32;20192;-79
2021/03/16 08:11:48;;;;;;;18.30;3.00;;;;;;;;;;4361785;32;20174;-80
2021/03/16 08:14:30;;;;;;;18.10;2.50;;;;;;;;;;4361444;32;20171;-79
2021/03/16 08:16:55;;;;;;;17.40;2.00;;;;;;;;;;4374949;32;20159;-81
2021/03/16 08:19:22;;;;;;;13.00;2.13;;;;;;;;;;4360448;32;20261;-78
2021/03/16 08:21:54;;;;;;;11.97;2.10;;;;;;;;;;4374525;32;20591;-80
2021/03/16 08:24:19;;;;;;;14.90;2.20;;;;;;;;;;4361219;32;20175;-76
2021/03/16 08:26:53;;;;;;;12.97;2.07;;;;;;;;;;4361955;32;20201;-79
2021/03/16 08:29:25;;;;;;;14.53;2.17;;;;;;;;;;4360447;32;20382;-77
2021/03/16 08:31:51;;;;;;;10.80;1.60;;;;;;;;;;4374762;32;20151;-77
2021/03/16 08:34:17;;;;;;;12.23;1.60;;;;;;;;;;4358589;32;20179;-78
2021/03/16 08:36:42;;;;;;;8.93;1.47;;;;;;;;;;4346389;33;20473;-78
2021/03/16 08:39:08;;;;;;;10.90;1.50;;;;;;;;;;4367642;32;20228;-79
2021/03/16 08:41:35;;;;;;;11.97;2.20;;;;;;;;;;4374777;32;20147;-75
2021/03/16 08:44:00;;;;;;;13.93;2.00;;;;;;;;;;4361108;32;20249;-77
2021/03/16 08:46:35;;;;;;;10.37;1.87;;;;;;;;;;4375278;32;20143;-78
2021/03/16 08:49:00;;;;;;;7.07;1.40;;;;;;;;;;4361326;32;20174;-76
2021/03/16 08:51:27;;;;;;;6.90;1.20;;;;;;;;;;4374848;32;20521;-78
2021/03/16 08:53:52;;;;;;;5.60;1.23;;;;;;;;;;4362783;32;20270;-77
2021/03/16 08:56:18;;;;;;;7.53;1.83;;;;;;;;;;4375226;32;20174;-81
2021/03/16 08:58:43;;;;;;;3.87;1.07;;;;;;;;;;4376492;32;20181;-80
2021/03/16 09:01:08;;;;;;;8.27;1.40;;;;;;;;;;4361585;32;20174;-78
2021/03/16 09:03:34;;;;;;;7.87;1.30;;;;;;;;;;4361128;32;20470;-77
2021/03/16 09:06:03;;;;;;;8.77;1.30;;;;;;;;;;4361272;32;20189;-80
2021/03/16 09:08:28;;;;;;;5.70;1.50;;;;;;;;;;4360429;32;20271;-78
2021/03/16 09:10:53;;;;;;;9.30;1.60;;;;;;;;;;4374070;32;20552;-79
2021/03/16 09:13:26;;;;;;;11.23;1.80;;;;;;;;;;4374408;32;20617;-76
2021/03/16 09:15:51;;;;;;;6.47;1.37;;;;;;;;;;4361025;32;20226;-79
2021/03/16 09:18:20;;;;;;;10.47;1.90;;;;;;;;;;4365022;32;20147;-77
2021/03/16 09:20:45;;;;;;;12.77;1.73;;;;;;;;;;4358142;32;20198;-77
2021/03/16 09:23:11;;;;;;;7.97;1.03;;;;;;;;;;4361175;32;20178;-76
2021/03/16 09:25:37;;;;;;;7.23;1.27;;;;;;;;;;4374920;32;20135;-75
2021/03/16 09:28:04;;;;;;;9.23;1.60;;;;;;;;;;4360682;32;20527;-79
2021/03/16 09:30:44;;;;;;;10.13;1.57;;;;;;;;;;4360334;32;20178;-79
2021/03/16 09:33:11;;;;;;;8.90;1.50;;;;;;;;;;4374727;32;20498;-79
2021/03/16 09:35:36;;;;;;;7.53;1.30;;;;;;;;;;4361046;32;20179;-75
2021/03/16 09:38:04;;;;;;;7.73;1.50;;;;;;;;;;4360979;32;20248;-80
2021/03/16 09:40:31;;;;;;;8.43;1.53;;;;;;;;;;4360723;32;20158;-80
2021/03/16 09:42:58;;;;;;;9.60;1.63;;;;;;;;;;4374427;32;20161;-80
2021/03/16 09:45:30;;;;;;;11.87;1.87;;;;;;;;;;4361097;32;20162;-81
2021/03/16 09:47:56;;;;;;;10.43;1.43;;;;;;;;;;4360465;32;20298;-80
2021/03/16 09:50:26;;;;;;;1.93;0.83;;;;;;;;;;4359940;32;20163;-80
2021/03/16 09:53:02;;;;;;;5.03;1.33;;;;;;;;;;4360710;32;20167;-77
2021/03/16 09:55:28;;;;;;;2.67;0.70;;;;;;;;;;4360608;32;20669;-80
2021/03/16 09:57:53;;;;;;;4.47;1.73;;;;;;;;;;4360515;32;20185;-78
2021/03/16 10:00:20;;;;;;;5.53;1.10;;;;;;;;;;4374084;32;20498;-79
2021/03/16 10:02:48;;;;;;;5.43;0.93;;;;;;;;;;4374621;32;20190;-80
2021/03/16 10:05:18;;;;;;;3.53;0.90;;;;;;;;;;4360793;32;20171;-81
2021/03/16 10:07:49;;;;;;;4.47;1.10;;;;;;;;;;4359760;32;20182;-77
2021/03/16 10:10:22;;;;;;;3.70;0.87;;;;;;;;;;4350650;32;20178;-78
2021/03/16 10:12:51;;;;;;;9.80;1.43;;;;;;;;;;4345306;33;20163;-78
2021/03/16 10:15:21;;;;;;;5.47;0.93;;;;;;;;;;4363865;32;20190;-79
2021/03/16 10:17:59;;;;;;;6.00;1.20;;;;;;;;;;4373887;32;20154;-79
2021/03/16 10:20:29;;;;;;;8.03;1.47;;;;;;;;;;4360585;32;20224;-80
2021/03/16 10:22:56;;;;;;;5.57;1.10;;;;;;;;;;4374158;32;20135;-79
2021/03/16 10:25:23;;;;;;;3.23;1.10;;;;;;;;;;4373831;32;20143;-78
2021/03/16 10:27:56;;;;;;;4.53;1.13;;;;;;;;;;4355407;33;20229;-80
2021/03/16 10:30:30;;;;;;;7.13;1.73;;;;;;;;;;4358604;33;20181;-76
2021/03/16 10:32:58;;;;;;;3.13;0.80;;;;;;;;;;4359552;33;20131;-77
2021/03/16 10:35:24;;;;;;;3.13;1.07;;;;;;;;;;4345416;33;20167;-80
2021/03/16 10:37:50;;;;;;;2.70;1.10;;;;;;;;;;4358533;33;20186;-80
2021/03/16 10:40:15;;;;;;;1.30;0.90;;;;;;;;;;4345273;33;20651;-79
2021/03/16 10:42:40;;;;;;;1.70;1.00;;;;;;;;;;4345561;33;20167;-80
2021/03/16 10:45:06;;;;;;;5.70;0.83;;;;;;;;;;4345494;33;20191;-79
2021/03/16 10:47:31;;;;;;;4.93;1.30;;;;;;;;;;4345480;33;20166;-78
2021/03/16 10:49:56;;;;;;;3.77;1.00;;;;;;;;;;4344921;33;20508;-78
2021/03/16 10:52:22;;;;;;;2.87;0.80;;;;;;;;;;4345370;33;20197;-79
2021/03/16 10:54:47;;;;;;;5.77;1.10;;;;;;;;;;4345414;33;20167;-78
2021/03/16 10:57:12;;;;;;;3.60;0.93;;;;;;;;;;4345195;33;20619;-82
2021/03/16 10:59:38;;;;;;;2.43;0.93;;;;;;;;;;4345105;33;20285;-79
2021/03/16 11:02:03;;;;;;;6.93;1.27;;;;;;;;;;4346356;33;20171;-80
2021/03/16 11:04:28;;;;;;;4.83;1.27;;;;;;;;;;4348004;33;20573;-77
2021/03/16 11:06:54;;;;;;;4.90;1.20;;;;;;;;;;4347829;33;20171;-78
2021/03/16 11:09:19;;;;;;;6.47;1.00;;;;;;;;;;4348393;33;20166;-78
2021/03/16 11:11:44;;;;;;;4.43;1.07;;;;;;;;;;4347745;33;20619;-78
2021/03/16 11:14:09;;;;;;;4.60;1.00;;;;;;;;;;4347656;33;20224;-80
2021/03/16 11:16:35;;;;;;;3.63;1.10;;;;;;;;;;4356911;32;20214;-79
2021/03/16 11:19:00;;;;;;;4.37;0.97;;;;;;;;;;4356657;32;20205;-77
2021/03/16 11:21:25;;;;;;;3.83;0.93;;;;;;;;;;4347362;33;20596;-80
2021/03/16 11:23:51;;;;;;;2.77;1.07;;;;;;;;;;4347624;33;20663;-80
2021/03/16 11:26:16;;;;;;;4.60;1.03;;;;;;;;;;4347848;33;20197;-79
2021/03/16 11:28:41;;;;;;;2.90;0.93;;;;;;;;;;4357869;32;20232;-79
2021/03/16 11:31:06;;;;;;;2.28;0.90;;;;;;;;;;4362108;32;20170;-77
2021/03/16 11:33:31;;;;;;;3.20;0.83;;;;;;;;;;4375635;32;20131;-77
2021/03/16 11:35:57;;;;;;;6.23;1.00;;;;;;;;;;4363996;32;20155;-77
2021/03/16 11:38:22;;;;;;;4.07;1.03;;;;;;;;;;4352954;32;20518;-79
2021/03/16 11:40:48;;;;;;;1.67;1.00;;;;;;;;;;4359618;32;20202;-78
2021/03/16 11:43:13;;;;;;;2.83;1.10;;;;;;;;;;4359840;32;20189;-79
2021/03/16 11:45:39;;;;;;;17.60;14.50;;;;;;;;;;4359872;32;20167;-77
2021/03/16 11:48:05;;;;;;;2.92;1.00;;;;;;;;;;4359721;33;20525;-78
2021/03/16 11:50:30;;;;;;;4.83;1.30;;;;;;;;;;4359665;32;20175;-79
2021/03/16 11:52:55;;;;;;;4.37;1.10;;;;;;;;;;4348199;32;20225;-75
2021/03/16 11:55:20;;;;;;;5.83;1.13;;;;;;;;;;4360924;32;20460;-80
2021/03/16 11:57:46;;;;;;;6.43;1.12;;;;;;;;;;4348280;32;20285;-80
2021/03/16 12:00:11;;;;;;;5.03;1.10;;;;;;;;;;4346953;33;20167;-80
2021/03/16 12:02:36;;;;;;;4.47;1.00;;;;;;;;;;4347894;33;20163;-81
2021/03/16 12:05:02;;;;;;;3.42;1.42;;;;;;;;;;4348106;33;20201;-80
2021/03/16 12:07:28;;;;;;;4.50;1.00;;;;;;;;;;4347309;33;20171;-79
2021/03/16 12:09:53;;;;;;;3.13;0.80;;;;;;;;;;4360949;32;20604;-77
2021/03/16 12:12:19;;;;;;;3.53;1.03;;;;;;;;;;4346774;33;20167;-78
2021/03/16 12:14:44;;;;;;;2.27;1.10;;;;;;;;;;4347157;33;20163;-77
2021/03/16 12:17:11;;;;;;;2.00;0.80;;;;;;;;;;4360762;32;20598;-79
2021/03/16 12:19:36;;;;;;;2.23;0.83;;;;;;;;;;4359781;32;20173;-78
2021/03/16 12:22:07;;;;;;;4.43;1.10;;;;;;;;;;4360890;32;20453;-77
2021/03/16 12:24:32;;;;;;;2.33;0.90;;;;;;;;;;4359525;32;20163;-75
2021/03/16 12:26:57;;;;;;;2.43;1.10;;;;;;;;;;4360237;32;20614;-79
2021/03/16 12:29:23;;;;;;;6.00;1.00;;;;;;;;;;4350493;32;20867;-77
2021/03/16 12:31:51;;;;;;;4.43;1.17;;;;;;;;;;4346579;33;20257;-75
2021/03/16 12:34:16;;;;;;;6.73;1.67;;;;;;;;;;4346453;33;20185;-77
2021/03/16 12:36:41;;;;;;;2.63;1.10;;;;;;;;;;4359916;33;20204;-78
2021/03/16 12:39:07;;;;;;;5.17;1.13;;;;;;;;;;4370496;32;20167;-74
2021/03/16 12:41:33;;;;;;;6.43;1.00;;;;;;;;;;4374690;32;20166;-76
2021/03/16 12:43:58;;;;;;;3.20;1.00;;;;;;;;;;4359871;32;20202;-77
2021/03/16 12:46:23;;;;;;;6.93;1.30;;;;;;;;;;4361067;32;20197;-77
2021/03/16 12:48:49;;;;;;;3.40;1.20;;;;;;;;;;4362092;32;20189;-80
2021/03/16 12:51:14;;;;;;;4.17;1.20;;;;;;;;;;4374629;32;20194;-78
2021/03/16 12:53:40;;;;;;;5.50;1.20;;;;;;;;;;4361564;32;20166;-76
2021/03/16 12:56:05;;;;;;;2.80;1.63;;;;;;;;;;4374733;32;20193;-76
2021/03/16 12:58:31;;;;;;;4.07;1.50;;;;;;;;;;4374835;32;20194;-77
2021/03/16 13:00:56;;;;;;;4.13;1.20;;;;;;;;;;4375144;32;20143;-77
2021/03/16 13:03:21;;;;;;;2.80;1.30;;;;;;;;;;4374748;32;20143;-79
2021/03/16 13:05:46;;;;;;;3.03;1.73;;;;;;;;;;4360675;32;20232;-76
2021/03/16 13:08:11;;;;;;;4.97;2.10;;;;;;;;;;4375302;32;20218;-77
2021/03/16 13:10:37;;;;;;;7.60;1.87;;;;;;;;;;4360974;32;20285;-76
2021/03/16 13:13:02;;;;;;;3.17;1.10;;;;;;;;;;4360952;32;20178;-77
2021/03/16 13:15:27;;;;;;;4.40;1.40;;;;;;;;;;4361660;32;20206;-76
2021/03/16 13:17:53;;;;;;;4.97;1.30;;;;;;;;;;4353162;32;20193;-78
2021/03/16 13:20:18;;;;;;;2.17;1.10;;;;;;;;;;4346436;33;20575;-80
2021/03/16 13:22:43;;;;;;;4.37;1.67;;;;;;;;;;4361155;32;20254;-74
2021/03/16 13:25:08;;;;;;;4.23;1.37;;;;;;;;;;4359861;32;20151;-78
2021/03/16 13:27:34;;;;;;;3.80;1.70;;;;;;;;;;4359145;32;20139;-76
2021/03/16 13:29:59;;;;;;;3.10;1.50;;;;;;;;;;4361599;32;20665;-79
2021/03/16 13:32:24;;;;;;;5.47;1.60;;;;;;;;;;4359716;32;20131;-78
2021/03/16 13:34:49;;;;;;;3.83;1.40;;;;;;;;;;4360699;32;20268;-74
2021/03/16 13:37:16;;;;;;;5.63;1.70;;;;;;;;;;4359795;32;20185;-75
2021/03/16 13:39:41;;;;;;;6.53;1.93;;;;;;;;;;4373188;32;20551;-75
2021/03/16 13:42:07;;;;;;;4.63;1.80;;;;;;;;;;4374143;32;20154;-74
2021/03/16 13:44:33;;;;;;;4.70;1.80;;;;;;;;;;4374810;32;20146;-77
2021/03/16 13:46:59;;;;;;;3.67;1.50;;;;;;;;;;4374781;32;20186;-78
2021/03/16 13:49:24;;;;;;;3.33;2.03;;;;;;;;;;4374476;32;20174;-77
2021/03/16 13:51:49;;;;;;;3.83;2.43;;;;;;;;;;4361020;32;20510;-74
2021/03/16 13:54:14;;;;;;;4.87;1.67;;;;;;;;;;4363802;32;20213;-77
2021/03/16 13:56:40;;;;;;;2.87;1.27;;;;;;;;;;4361283;32;20456;-76
2021/03/16 13:59:05;;;;;;;2.53;1.60;;;;;;;;;;4345161;33;20197;-76
2021/03/16 14:01:30;;;;;;;5.40;1.63;;;;;;;;;;4346293;33;20645;-77
2021/03/16 14:03:56;;;;;;;4.63;1.70;;;;;;;;;;4346919;33;20226;-75
2021/03/16 14:06:21;;;;;;;2.20;1.30;;;;;;;;;;4345981;33;20167;-75
2021/03/16 14:08:46;;;;;;;3.67;1.50;;;;;;;;;;4359372;32;20199;-77
2021/03/16 14:11:12;;;;;;;3.10;1.63;;;;;;;;;;4345358;33;20216;-76
2021/03/16 14:13:37;;;;;;;4.10;1.67;;;;;;;;;;4345968;33;20501;-73
2021/03/16 14:16:02;;;;;;;4.53;1.90;;;;;;;;;;4360055;33;20135;-77
2021/03/16 14:18:27;;;;;;;2.80;1.40;;;;;;;;;;4346094;33;20235;-75
2021/03/16 14:20:53;;;;;;;4.00;2.13;;;;;;;;;;4360320;33;20556;-75
2021/03/16 14:23:18;;;;;;;8.57;2.60;;;;;;;;;;4358742;33;20233;-76
2021/03/16 14:25:44;;;;;;;3.67;1.40;;;;;;;;;;4347448;32;20155;-77
2021/03/16 14:28:09;;;;;;;2.90;1.87;;;;;;;;;;4353042;33;20167;-75
2021/03/16 14:30:34;;;;;;;2.43;1.63;;;;;;;;;;4345207;33;20212;-76